Time;durP1;ratioP1;P1;durP2;ratioP2;P2;SDS_P1;SDS_P2;PMS_P1;PMS_P2;Temp;Humidity;BMP_temperature;BMP_pressure;BME280_temperature;BME280_humidity;BME280_pressure;Samples;Min_cycle;Max_cycle;Signal;HPM_P1;HPM_P2
2022/11/30 00:01:21;;;;;;;42.97;18.47;;;6.40;99.90;;;;;;5036103;28;20540;-62
2022/11/30 00:03:53;;;;;;;30.63;17.87;;;6.40;99.90;;;;;;5035814;28;20472;-63
2022/11/30 00:06:22;;;;;;;44.17;20.40;;;6.40;99.90;;;;;;5035060;28;20473;-59
2022/11/30 00:08:53;;;;;;;40.17;18.77;;;6.30;99.90;;;;;;5036029;28;20533;-57
2022/11/30 00:11:27;;;;;;;38.53;19.00;;;6.30;99.90;;;;;;5034446;28;20469;-58
2022/11/30 00:13:54;;;;;;;35.20;18.20;;;6.30;99.90;;;;;;5034514;28;20415;-57
2022/11/30 00:16:21;;;;;;;40.43;19.87;;;6.30;99.90;;;;;;5034282;28;20492;-58
2022/11/30 00:18:48;;;;;;;48.77;21.40;;;6.30;99.90;;;;;;5034734;28;20452;-58
2022/11/30 00:21:15;;;;;;;32.10;19.40;;;6.30;99.90;;;;;;5034531;28;20500;-56
2022/11/30 00:23:44;;;;;;;36.10;19.80;;;6.30;99.90;;;;;;5034545;28;20438;-57
2022/11/30 00:26:14;;;;;;;40.77;20.20;;;6.40;99.90;;;;;;5034551;28;20456;-59
2022/11/30 00:28:42;;;;;;;44.67;21.00;;;6.40;99.90;;;;;;5035250;28;20441;-51
2022/11/30 00:31:13;;;;;;;38.10;21.37;;;6.40;99.90;;;;;;5034581;28;20467;-56
2022/11/30 00:33:40;;;;;;;38.23;20.17;;;6.40;99.90;;;;;;5035344;28;20422;-59
2022/11/30 00:36:10;;;;;;;39.47;21.80;;;6.40;99.90;;;;;;5035173;28;20460;-56
2022/11/30 00:38:37;;;;;;;39.83;19.37;;;6.30;99.90;;;;;;5035884;28;20441;-57
2022/11/30 00:41:05;;;;;;;38.10;18.93;;;6.30;99.90;;;;;;5035754;28;20449;-61
2022/11/30 00:43:33;;;;;;;39.27;18.37;;;6.30;99.90;;;;;;5035750;28;20426;-67
2022/11/30 00:46:01;;;;;;;43.93;21.40;;;6.30;99.90;;;;;;5036159;28;20480;-58
2022/11/30 00:48:28;;;;;;;40.20;20.47;;;6.30;99.90;;;;;;5035607;28;20445;-54
2022/11/30 00:50:55;;;;;;;39.20;20.60;;;6.30;99.90;;;;;;5035722;28;20445;-59
2022/11/30 00:53:23;;;;;;;46.03;21.30;;;6.20;99.90;;;;;;5034886;28;20493;-57
2022/11/30 00:55:50;;;;;;;36.67;18.90;;;6.20;99.90;;;;;;5034215;28;20445;-56
2022/11/30 00:58:19;;;;;;;37.23;19.13;;;6.20;99.90;;;;;;5034402;28;20476;-61
2022/11/30 01:00:47;;;;;;;52.67;20.50;;;6.10;99.90;;;;;;5034641;28;20448;-64
2022/11/30 01:03:17;;;;;;;50.97;22.57;;;6.10;99.90;;;;;;5034336;28;20468;-66
2022/11/30 01:05:44;;;;;;;39.17;18.93;;;6.20;99.90;;;;;;5034773;28;20426;-66
2022/11/30 01:08:12;;;;;;;36.77;18.80;;;6.20;99.90;;;;;;5034597;28;20477;-59
2022/11/30 01:10:42;;;;;;;42.80;19.37;;;6.20;99.90;;;;;;5034972;28;20441;-59
2022/11/30 01:13:14;;;;;;;37.60;19.00;;;6.10;99.90;;;;;;5034820;28;20488;-58
2022/11/30 01:15:44;;;;;;;33.70;18.97;;;6.10;99.90;;;;;;5034437;28;20452;-59
2022/11/30 01:18:14;;;;;;;42.00;21.63;;;6.10;99.90;;;;;;5034513;28;20437;-60
2022/11/30 01:20:42;;;;;;;49.13;22.90;;;6.10;99.90;;;;;;5035062;28;20453;-55
2022/11/30 01:23:09;;;;;;;41.23;20.53;;;6.10;99.90;;;;;;5036623;28;20437;-59
2022/11/30 01:25:36;;;;;;;41.00;21.40;;;6.20;99.90;;;;;;5038080;28;20476;-59
2022/11/30 01:28:03;;;;;;;37.40;21.00;;;6.20;99.90;;;;;;5038087;28;20445;-56
2022/11/30 01:30:29;;;;;;;50.87;19.97;;;6.20;99.90;;;;;;5040640;28;20440;-57
2022/11/30 01:33:01;;;;;;;42.00;22.60;;;6.10;99.90;;;;;;5055894;28;20479;-55
2022/11/30 01:35:29;;;;;;;38.33;19.17;;;6.10;99.90;;;;;;5056974;28;20467;-61
2022/11/30 01:37:56;;;;;;;39.70;22.40;;;6.10;99.90;;;;;;5057973;28;20453;-64
2022/11/30 01:40:23;;;;;;;47.43;19.87;;;6.10;99.90;;;;;;5056525;28;20468;-55
2022/11/30 01:42:50;;;;;;;40.53;20.60;;;6.00;99.90;;;;;;5055464;28;20440;-57
2022/11/30 01:45:17;;;;;;;44.30;19.87;;;6.00;99.90;;;;;;5057179;28;20448;-58
2022/11/30 01:47:47;;;;;;;38.70;18.77;;;6.10;99.90;;;;;;5056697;28;20447;-59
2022/11/30 01:50:21;;;;;;;44.23;22.80;;;6.10;99.90;;;;;;5056795;28;20428;-55
2022/11/30 01:52:52;;;;;;;48.40;19.67;;;6.10;99.90;;;;;;5056136;28;20956;-56
2022/11/30 01:55:22;;;;;;;38.70;18.70;;;6.00;99.90;;;;;;5057019;28;20428;-57
2022/11/30 01:57:56;;;;;;;37.83;19.13;;;6.00;99.90;;;;;;5056069;28;20472;-60
2022/11/30 02:00:23;;;;;;;36.67;19.50;;;6.00;99.90;;;;;;5056567;28;20444;-55
2022/11/30 02:02:56;;;;;;;50.63;19.30;;;6.00;99.90;;;;;;5057509;28;20464;-57
2022/11/30 02:05:24;;;;;;;39.17;22.00;;;6.00;99.90;;;;;;5057195;28;20428;-55
2022/11/30 02:07:53;;;;;;;39.70;20.53;;;6.00;99.90;;;;;;5057033;28;20468;-53
2022/11/30 02:10:24;;;;;;;34.20;18.77;;;6.00;99.90;;;;;;5057099;28;20424;-53
2022/11/30 02:13:23;;;;;;;36.50;18.87;;;6.00;99.90;;;;;;5056205;28;20484;-60
2022/11/30 02:15:58;;;;;;;43.60;21.40;;;6.00;99.90;;;;;;5057631;28;20440;-56
2022/11/30 02:18:31;;;;;;;38.43;18.37;;;6.00;99.90;;;;;;5058013;28;20420;-60
2022/11/30 02:21:05;;;;;;;45.37;23.30;;;6.00;99.90;;;;;;5058006;28;20451;-58
2022/11/30 02:23:56;;;;;;;42.07;21.33;;;6.00;99.90;;;;;;5057780;28;20420;-61
2022/11/30 02:26:34;;;;;;;47.03;22.70;;;6.00;99.90;;;;;;5057147;28;20424;-60
2022/11/30 02:29:25;;;;;;;44.03;20.53;;;6.00;99.90;;;;;;5056262;28;20607;-58
2022/11/30 02:31:57;;;;;;;41.90;19.27;;;6.00;99.90;;;;;;5049430;28;20468;-56
2022/11/30 02:34:27;;;;;;;45.70;22.57;;;6.10;99.90;;;;;;5056639;28;20944;-58
2022/11/30 02:36:55;;;;;;;42.17;20.23;;;6.00;99.90;;;;;;5055928;28;20464;-53
2022/11/30 02:39:22;;;;;;;40.97;19.23;;;6.10;99.90;;;;;;5056817;28;20457;-54
2022/11/30 02:41:54;;;;;;;31.10;17.33;;;6.00;99.90;;;;;;5056254;28;20464;-55
2022/11/30 02:44:24;;;;;;;43.33;19.60;;;6.00;99.90;;;;;;5056382;28;20483;-50
2022/11/30 02:47:07;;;;;;;38.77;19.20;;;6.00;99.90;;;;;;5056696;28;20452;-56
2022/11/30 02:49:40;;;;;;;44.13;20.70;;;6.00;99.90;;;;;;5056342;28;20441;-56
2022/11/30 02:52:11;;;;;;;43.53;21.33;;;6.00;99.90;;;;;;5056592;28;20428;-57
2022/11/30 02:54:38;;;;;;;45.23;21.70;;;5.90;99.90;;;;;;5056338;28;20443;-58
2022/11/30 02:57:05;;;;;;;40.13;19.07;;;5.90;99.90;;;;;;5056178;28;20448;-57
2022/11/30 02:59:34;;;;;;;33.43;18.57;;;5.90;99.90;;;;;;5056128;28;20472;-59
2022/11/30 03:02:00;;;;;;;42.63;19.60;;;5.90;99.90;;;;;;5056728;28;20468;-59
2022/11/30 03:04:27;;;;;;;36.00;19.10;;;6.00;99.90;;;;;;5056520;28;20494;-56
2022/11/30 03:06:54;;;;;;;35.83;20.80;;;6.00;99.90;;;;;;5056968;28;20447;-57
2022/11/30 03:09:21;;;;;;;35.50;19.70;;;6.00;99.90;;;;;;5055655;28;20460;-58
2022/11/30 03:11:48;;;;;;;41.27;20.40;;;6.00;99.90;;;;;;5056244;28;20412;-59
2022/11/30 03:14:15;;;;;;;40.97;21.23;;;6.00;99.90;;;;;;5055592;28;20480;-59
2022/11/30 03:16:44;;;;;;;36.27;19.80;;;6.00;99.90;;;;;;5055481;28;20452;-55
2022/11/30 03:19:11;;;;;;;44.60;21.40;;;6.00;99.90;;;;;;5055415;28;20448;-54
2022/11/30 03:21:38;;;;;;;46.77;21.60;;;6.00;99.90;;;;;;5055080;28;20459;-54
2022/11/30 03:24:05;;;;;;;41.43;19.90;;;6.00;99.90;;;;;;5055243;28;20456;-55
2022/11/30 03:26:32;;;;;;;37.23;18.60;;;6.00;99.90;;;;;;5054747;28;20452;-56
2022/11/30 03:29:01;;;;;;;44.67;22.23;;;6.00;99.90;;;;;;5055011;28;20479;-56
2022/11/30 03:31:28;;;;;;;41.13;21.37;;;6.00;99.90;;;;;;5054649;28;20464;-57
2022/11/30 03:33:56;;;;;;;46.27;21.00;;;6.00;99.90;;;;;;5055016;28;20476;-56
2022/11/30 03:36:23;;;;;;;38.70;18.67;;;6.00;99.90;;;;;;5054202;28;20440;-56
2022/11/30 03:38:50;;;;;;;47.93;21.23;;;6.10;99.90;;;;;;5055132;28;20444;-56
2022/11/30 03:41:20;;;;;;;40.87;21.53;;;6.00;99.90;;;;;;5055233;28;20444;-60
2022/11/30 03:43:47;;;;;;;43.07;17.50;;;6.00;99.90;;;;;;5055730;28;20471;-60
2022/11/30 03:46:14;;;;;;;33.77;20.67;;;6.00;99.90;;;;;;5054548;28;20460;-61
2022/11/30 03:48:41;;;;;;;44.93;19.73;;;6.00;99.90;;;;;;5055350;28;20472;-58
2022/11/30 03:51:11;;;;;;;47.63;21.70;;;6.00;99.90;;;;;;5054751;28;20444;-60
2022/11/30 03:53:38;;;;;;;43.37;20.27;;;6.00;99.90;;;;;;5054464;28;20488;-57
2022/11/30 03:56:07;;;;;;;33.13;20.60;;;6.00;99.90;;;;;;5054527;28;20448;-56
2022/11/30 03:58:34;;;;;;;34.90;21.13;;;6.00;99.90;;;;;;5054598;28;20443;-55
2022/11/30 04:01:03;;;;;;;37.83;19.60;;;6.00;99.90;;;;;;5046318;28;20547;-58
2022/11/30 04:03:31;;;;;;;39.67;19.90;;;5.90;99.90;;;;;;5046819;28;20471;-54
2022/11/30 04:05:58;;;;;;;39.83;20.80;;;5.90;99.90;;;;;;5055370;28;20519;-58
2022/11/30 04:08:27;;;;;;;48.43;20.93;;;5.90;99.90;;;;;;5054578;28;20444;-58
2022/11/30 04:10:59;;;;;;;30.67;18.83;;;6.00;99.90;;;;;;5055149;28;20475;-60
2022/11/30 04:13:26;;;;;;;36.97;19.50;;;6.00;99.90;;;;;;5055363;28;20484;-59
2022/11/30 04:15:54;;;;;;;40.90;20.67;;;6.00;99.90;;;;;;5054047;28;20444;-59
2022/11/30 04:18:22;;;;;;;44.27;20.67;;;6.00;99.90;;;;;;5054085;28;20479;-58
2022/11/30 04:20:50;;;;;;;44.90;20.53;;;6.00;99.90;;;;;;5054244;28;20445;-55
2022/11/30 04:23:17;;;;;;;41.27;23.57;;;6.00;99.90;;;;;;5054169;28;20468;-59
2022/11/30 04:25:46;;;;;;;40.53;20.10;;;6.00;99.90;;;;;;5053498;28;20482;-60
2022/11/30 04:28:14;;;;;;;41.10;21.80;;;6.00;99.90;;;;;;5054125;28;20468;-55
2022/11/30 04:30:41;;;;;;;41.23;19.47;;;5.90;99.90;;;;;;5054020;28;20448;-54
2022/11/30 04:33:10;;;;;;;40.40;19.67;;;5.90;99.90;;;;;;5047954;28;20480;-55
2022/11/30 04:35:40;;;;;;;41.90;21.07;;;5.90;99.90;;;;;;5053723;28;20479;-57
2022/11/30 04:38:07;;;;;;;43.50;22.30;;;5.90;99.90;;;;;;5054629;28;20458;-57
2022/11/30 04:40:34;;;;;;;44.50;19.53;;;5.80;99.90;;;;;;5054381;28;20444;-54
2022/11/30 04:43:02;;;;;;;35.17;19.13;;;5.80;99.90;;;;;;5053761;28;20451;-56
2022/11/30 04:45:29;;;;;;;46.87;20.40;;;5.80;99.90;;;;;;5046840;28;20499;-62
2022/11/30 04:47:56;;;;;;;42.60;20.20;;;5.80;99.90;;;;;;5054248;28;20451;-64
2022/11/30 04:50:23;;;;;;;41.70;20.10;;;5.90;99.90;;;;;;5053077;28;20613;-58
2022/11/30 04:52:50;;;;;;;41.30;19.73;;;5.80;99.90;;;;;;5054030;28;20451;-56
2022/11/30 04:55:18;;;;;;;42.17;21.27;;;5.80;99.90;;;;;;5054579;28;20844;-61
2022/11/30 04:57:45;;;;;;;40.67;19.77;;;5.80;99.90;;;;;;5053508;28;20419;-61
2022/11/30 05:00:15;;;;;;;44.03;22.63;;;5.70;99.90;;;;;;5054326;28;20462;-55
2022/11/30 05:02:42;;;;;;;41.40;20.83;;;5.70;99.90;;;;;;5053195;28;20483;-56
2022/11/30 05:05:09;;;;;;;38.87;19.80;;;5.80;99.90;;;;;;5054179;28;20455;-59
2022/11/30 05:07:39;;;;;;;48.40;23.00;;;5.80;99.90;;;;;;5054162;28;20482;-58
2022/11/30 05:10:08;;;;;;;34.50;19.83;;;5.70;99.90;;;;;;5054172;28;20444;-60
2022/11/30 05:12:35;;;;;;;45.43;21.00;;;5.70;99.90;;;;;;5053504;28;20499;-56
2022/11/30 05:15:02;;;;;;;37.27;19.47;;;5.80;99.90;;;;;;5045392;28;20510;-52
2022/11/30 05:17:30;;;;;;;40.70;19.53;;;5.80;99.90;;;;;;5053908;28;20424;-54
2022/11/30 05:19:57;;;;;;;42.30;21.10;;;5.80;99.90;;;;;;5052335;28;20448;-56
2022/11/30 05:22:24;;;;;;;38.43;17.93;;;5.80;99.90;;;;;;5053290;28;20452;-54
2022/11/30 05:24:51;;;;;;;42.03;22.77;;;5.70;99.90;;;;;;5053382;28;20495;-59
2022/11/30 05:27:18;;;;;;;47.77;23.63;;;5.80;99.90;;;;;;5053959;28;20459;-69
2022/11/30 05:29:44;;;;;;;40.27;18.77;;;5.70;99.90;;;;;;5053642;28;20472;-52
2022/11/30 05:32:11;;;;;;;41.20;19.47;;;5.80;99.90;;;;;;5052876;28;20444;-56
2022/11/30 05:34:40;;;;;;;44.07;19.97;;;5.80;99.90;;;;;;5053097;28;20467;-57
2022/11/30 05:37:06;;;;;;;35.70;19.00;;;5.70;99.90;;;;;;5053732;28;20440;-54
2022/11/30 05:39:33;;;;;;;41.20;20.40;;;5.70;99.90;;;;;;5052690;28;20445;-59
2022/11/30 05:42:00;;;;;;;42.40;20.67;;;5.70;99.90;;;;;;5053707;28;20444;-56
2022/11/30 05:44:27;;;;;;;39.30;21.57;;;5.70;99.90;;;;;;5052566;28;20440;-58
2022/11/30 05:46:54;;;;;;;37.97;20.23;;;5.70;99.90;;;;;;5053531;28;20480;-62
2022/11/30 05:49:21;;;;;;;50.03;20.40;;;5.70;99.90;;;;;;5048608;28;20448;-53
2022/11/30 05:51:49;;;;;;;38.17;21.10;;;5.70;99.90;;;;;;5053344;28;20455;-59
2022/11/30 05:54:18;;;;;;;41.70;21.03;;;5.80;99.90;;;;;;5052898;28;20476;-57
2022/11/30 05:56:48;;;;;;;47.47;18.47;;;5.80;99.90;;;;;;5052807;28;20432;-51
2022/11/30 05:59:14;;;;;;;36.57;19.13;;;5.80;99.90;;;;;;5053606;28;20452;-54
2022/11/30 06:01:41;;;;;;;36.60;19.40;;;5.80;99.90;;;;;;5053608;28;20440;-53
2022/11/30 06:04:08;;;;;;;37.33;18.50;;;5.80;99.90;;;;;;5053521;28;20463;-56
2022/11/30 06:06:35;;;;;;;39.10;19.50;;;5.80;99.90;;;;;;5049819;28;20463;-63
2022/11/30 06:09:06;;;;;;;40.07;20.57;;;5.90;99.90;;;;;;5055936;28;20467;-60
2022/11/30 06:11:33;;;;;;;38.33;19.83;;;5.90;99.90;;;;;;5057277;28;20420;-59
2022/11/30 06:14:00;;;;;;;37.60;20.37;;;5.90;99.90;;;;;;5056503;28;20488;-59
2022/11/30 06:16:27;;;;;;;45.30;20.20;;;5.90;99.90;;;;;;5056513;28;20451;-56
2022/11/30 06:18:54;;;;;;;38.57;18.93;;;5.90;99.90;;;;;;5051929;28;20969;-58
2022/11/30 06:21:21;;;;;;;44.80;21.57;;;5.90;99.90;;;;;;5054658;28;20448;-53
2022/11/30 06:23:48;;;;;;;41.60;18.70;;;5.90;99.90;;;;;;5056069;28;20428;-56
2022/11/30 06:26:16;;;;;;;45.43;20.63;;;5.90;99.90;;;;;;5056246;28;20482;-52
2022/11/30 06:28:45;;;;;;;45.90;21.50;;;5.90;99.90;;;;;;5055614;28;20475;-58
2022/11/30 06:31:12;;;;;;;43.97;20.37;;;5.90;99.90;;;;;;5056545;28;20467;-57
2022/11/30 06:33:39;;;;;;;29.70;17.43;;;5.90;99.90;;;;;;5056819;28;21035;-54
2022/11/30 06:36:07;;;;;;;33.17;18.27;;;5.90;99.90;;;;;;5056932;28;20468;-57
2022/11/30 06:38:33;;;;;;;40.20;19.90;;;5.90;99.90;;;;;;5057251;28;20444;-64
2022/11/30 06:41:04;;;;;;;33.90;17.73;;;5.90;99.90;;;;;;5056363;28;20472;-56
2022/11/30 06:43:36;;;;;;;38.00;19.70;;;6.00;99.90;;;;;;5056562;28;20925;-60
2022/11/30 06:46:04;;;;;;;39.57;18.37;;;5.90;99.90;;;;;;5056341;28;20432;-55
2022/11/30 06:48:33;;;;;;;38.37;19.90;;;5.90;99.90;;;;;;5056233;28;20476;-59
2022/11/30 06:51:05;;;;;;;44.97;20.97;;;5.90;99.90;;;;;;5055715;28;20490;-56
2022/11/30 06:53:32;;;;;;;44.07;19.90;;;5.90;99.90;;;;;;5055547;28;20488;-59
2022/11/30 06:55:58;;;;;;;41.90;19.77;;;5.90;99.90;;;;;;5055312;28;20450;-58
2022/11/30 06:58:29;;;;;;;47.57;20.17;;;5.90;99.90;;;;;;5055574;28;20530;-55
2022/11/30 07:00:57;;;;;;;51.30;21.50;;;5.90;99.90;;;;;;5054914;28;20747;-56
2022/11/30 07:03:24;;;;;;;38.70;20.83;;;5.90;99.90;;;;;;5053673;28;20468;-57
2022/11/30 07:05:51;;;;;;;38.00;18.33;;;5.90;99.90;;;;;;5055074;28;20440;-55
2022/11/30 07:08:18;;;;;;;41.47;20.90;;;6.00;99.90;;;;;;5055270;28;20443;-53
2022/11/30 07:10:46;;;;;;;44.30;19.70;;;5.90;99.90;;;;;;5055528;28;20496;-57
2022/11/30 07:13:15;;;;;;;44.53;22.27;;;5.90;99.90;;;;;;5055900;28;20452;-61
2022/11/30 07:15:42;;;;;;;40.23;19.07;;;5.90;99.90;;;;;;5055980;28;20491;-64
2022/11/30 07:18:11;;;;;;;43.07;20.80;;;5.90;99.90;;;;;;5056003;28;20471;-62
2022/11/30 07:20:47;;;;;;;39.00;19.20;;;5.90;99.90;;;;;;5054956;28;20512;-65
2022/11/30 07:26:09;;;;;;;42.83;20.13;;;6.00;99.90;;;;;;5125360;22;20510;-54
2022/11/30 07:28:38;;;;;;;35.47;19.87;;;6.00;99.90;;;;;;5055893;28;20509;-52
2022/11/30 07:31:16;;;;;;;40.27;20.90;;;6.00;99.90;;;;;;5053506;28;20436;-59
2022/11/30 07:36:30;;;;;;;47.87;20.93;;;6.10;99.90;;;;;;5042734;28;20492;-57
2022/11/30 07:38:57;;;;;;;42.13;21.20;;;6.10;99.90;;;;;;5038415;28;20449;-59
2022/11/30 07:41:24;;;;;;;43.27;20.87;;;6.10;99.90;;;;;;5050327;28;20424;-57
2022/11/30 07:43:51;;;;;;;55.57;24.47;;;6.10;99.90;;;;;;5055367;28;20453;-55
2022/11/30 07:46:18;;;;;;;36.73;17.23;;;6.10;99.90;;;;;;5049468;28;20440;-55
2022/11/30 07:48:46;;;;;;;46.90;18.67;;;6.00;99.90;;;;;;5054936;28;21024;-55
2022/11/30 07:51:15;;;;;;;37.97;18.73;;;6.00;99.90;;;;;;5053587;28;20459;-57
2022/11/30 07:53:42;;;;;;;39.60;19.43;;;6.00;99.90;;;;;;5052795;28;20769;-52
2022/11/30 07:56:11;;;;;;;41.07;19.13;;;6.00;99.90;;;;;;5047393;28;20432;-57
2022/11/30 07:58:39;;;;;;;34.83;19.10;;;6.00;99.90;;;;;;5033769;28;20608;-54
2022/11/30 08:01:08;;;;;;;43.60;19.33;;;6.10;99.90;;;;;;5035842;28;20465;-56
2022/11/30 08:03:36;;;;;;;49.37;22.50;;;6.70;99.90;;;;;;5041440;28;20486;-58
2022/11/30 08:06:06;;;;;;;38.90;18.70;;;6.80;99.90;;;;;;5037825;28;20473;-59
2022/11/30 08:08:35;;;;;;;37.10;20.03;;;6.70;99.90;;;;;;5034255;28;20421;-54
2022/11/30 08:11:03;;;;;;;42.90;20.77;;;6.70;99.90;;;;;;5050084;28;20432;-57
2022/11/30 08:13:30;;;;;;;40.77;18.80;;;6.60;99.90;;;;;;5053617;28;20440;-58
2022/11/30 08:16:01;;;;;;;36.03;19.23;;;6.50;99.90;;;;;;5055128;28;20448;-58
2022/11/30 08:18:28;;;;;;;46.60;21.57;;;6.40;99.90;;;;;;5054621;28;20468;-56
2022/11/30 08:20:59;;;;;;;42.77;20.87;;;6.40;99.90;;;;;;5054356;28;20474;-58
2022/11/30 08:23:28;;;;;;;40.67;19.87;;;6.40;99.90;;;;;;5054268;28;20575;-58
2022/11/30 08:25:54;;;;;;;35.40;17.77;;;6.30;99.90;;;;;;5054025;28;20456;-55
2022/11/30 08:28:21;;;;;;;45.90;18.70;;;6.30;99.90;;;;;;5053999;28;20455;-58
2022/11/30 08:30:48;;;;;;;41.00;20.83;;;6.30;99.90;;;;;;5054013;28;20436;-57
2022/11/30 08:33:15;;;;;;;37.97;19.97;;;6.40;99.90;;;;;;5054665;28;20893;-56
2022/11/30 08:35:42;;;;;;;32.73;18.40;;;6.40;99.90;;;;;;5054392;28;20499;-55
2022/11/30 08:38:09;;;;;;;39.47;18.20;;;6.30;99.90;;;;;;5054099;28;20445;-52
2022/11/30 08:40:37;;;;;;;34.50;20.13;;;6.30;99.90;;;;;;5053751;28;20455;-55
2022/11/30 08:43:04;;;;;;;41.43;21.97;;;6.30;99.90;;;;;;5053082;28;20459;-57
2022/11/30 08:45:31;;;;;;;49.30;20.07;;;6.30;99.90;;;;;;5053766;28;20460;-54
2022/11/30 08:47:58;;;;;;;41.63;18.77;;;6.30;99.90;;;;;;5054092;28;20472;-58
2022/11/30 08:50:25;;;;;;;38.30;17.23;;;6.30;99.90;;;;;;5054751;28;20477;-58
2022/11/30 08:52:55;;;;;;;38.60;19.47;;;6.30;99.90;;;;;;5054148;28;20448;-57
2022/11/30 08:55:21;;;;;;;40.37;19.13;;;6.30;99.90;;;;;;5054230;28;20531;-61
2022/11/30 08:57:50;;;;;;;45.43;19.30;;;6.30;99.90;;;;;;5053737;28;20429;-58
2022/11/30 09:00:18;;;;;;;41.47;20.50;;;6.40;99.90;;;;;;5054055;28;20459;-57
2022/11/30 09:02:46;;;;;;;40.17;18.43;;;6.40;99.90;;;;;;5053800;28;20448;-56
2022/11/30 09:05:13;;;;;;;43.93;19.03;;;6.40;99.90;;;;;;5053716;28;20508;-58
2022/11/30 09:07:39;;;;;;;52.67;20.50;;;6.50;99.90;;;;;;5053309;28;20470;-57
2022/11/30 09:10:08;;;;;;;48.23;20.60;;;6.50;99.90;;;;;;5053709;28;20440;-54
2022/11/30 09:12:35;;;;;;;48.83;20.50;;;6.50;99.90;;;;;;5052971;28;20789;-54
2022/11/30 09:15:04;;;;;;;35.27;18.87;;;6.50;99.90;;;;;;5053675;28;20487;-56
2022/11/30 09:17:32;;;;;;;40.30;18.83;;;6.50;99.90;;;;;;5053040;28;20470;-57
2022/11/30 09:19:59;;;;;;;42.87;21.17;;;6.50;99.90;;;;;;5053711;28;20444;-55
2022/11/30 09:22:26;;;;;;;35.70;19.57;;;6.50;99.90;;;;;;5053813;28;20533;-59
2022/11/30 09:24:54;;;;;;;37.03;18.43;;;6.60;99.90;;;;;;5052965;28;20551;-57
2022/11/30 09:27:20;;;;;;;41.20;17.73;;;6.60;99.90;;;;;;5053057;28;20464;-52
2022/11/30 09:29:47;;;;;;;36.13;18.43;;;6.70;99.90;;;;;;5041579;28;20476;-52
2022/11/30 09:32:16;;;;;;;33.40;17.47;;;6.70;99.90;;;;;;5033443;28;20464;-56
2022/11/30 09:34:43;;;;;;;41.33;18.93;;;6.70;99.90;;;;;;5025717;28;20496;-58
2022/11/30 09:37:09;;;;;;;42.40;20.70;;;6.70;99.90;;;;;;5048721;28;20436;-57
2022/11/30 09:39:36;;;;;;;37.90;18.17;;;6.80;99.90;;;;;;5043411;28;20811;-55
2022/11/30 09:42:28;;;;;;;35.77;17.87;;;6.80;99.90;;;;;;5035140;28;20476;-56
2022/11/30 09:45:03;;;;;;;38.67;20.03;;;6.80;99.90;;;;;;5047733;28;20444;-54
2022/11/30 09:47:57;;;;;;;42.17;19.97;;;6.80;99.90;;;;;;5059344;28;20428;-56
2022/11/30 09:50:27;;;;;;;43.27;20.70;;;6.90;99.90;;;;;;5060283;28;20892;-57
2022/11/30 09:52:56;;;;;;;37.57;18.87;;;7.00;99.90;;;;;;5060526;28;20439;-56
2022/11/30 09:55:28;;;;;;;33.37;17.80;;;7.10;99.90;;;;;;5058742;28;20471;-53
2022/11/30 09:57:58;;;;;;;34.97;18.97;;;7.10;99.90;;;;;;5059114;28;20416;-63
2022/11/30 10:00:27;;;;;;;42.53;17.27;;;7.10;99.90;;;;;;5058941;28;20428;-57
2022/11/30 10:02:57;;;;;;;34.47;17.90;;;7.10;99.90;;;;;;5058325;28;20444;-52
2022/11/30 10:05:28;;;;;;;36.93;18.80;;;7.20;99.90;;;;;;5057508;28;20424;-57
2022/11/30 10:08:09;;;;;;;41.53;19.87;;;7.20;99.90;;;;;;5057939;28;20432;-56
2022/11/30 10:10:40;;;;;;;44.27;20.40;;;7.20;99.90;;;;;;5057579;28;20517;-54
2022/11/30 10:13:23;;;;;;;37.53;22.17;;;7.30;99.90;;;;;;5050043;28;20448;-57
2022/11/30 10:16:02;;;;;;;39.73;18.73;;;7.40;99.90;;;;;;5058497;28;20516;-57
2022/11/30 10:18:44;;;;;;;42.63;20.07;;;7.40;99.90;;;;;;5058905;28;20424;-57
2022/11/30 10:21:23;;;;;;;42.17;19.57;;;7.30;99.90;;;;;;5054104;28;20796;-58
2022/11/30 10:24:03;;;;;;;39.33;20.47;;;7.40;99.90;;;;;;5056889;28;20430;-54
2022/11/30 10:26:34;;;;;;;39.47;20.23;;;7.40;99.90;;;;;;5058782;28;20428;-56
2022/11/30 10:29:12;;;;;;;39.63;19.67;;;7.50;99.90;;;;;;5059553;28;20425;-56
2022/11/30 10:31:41;;;;;;;38.87;21.33;;;7.50;99.90;;;;;;5058576;28;20432;-58
2022/11/30 10:34:20;;;;;;;45.13;22.27;;;7.50;99.90;;;;;;5058140;28;20452;-57
2022/11/30 10:36:53;;;;;;;54.10;21.90;;;7.50;99.90;;;;;;5058266;28;20454;-53
2022/11/30 10:39:46;;;;;;;37.27;19.73;;;7.60;99.90;;;;;;5058960;28;20451;-61
2022/11/30 10:42:17;;;;;;;41.07;20.67;;;7.60;99.90;;;;;;5058224;28;20452;-58
2022/11/30 10:44:49;;;;;;;39.87;19.20;;;7.70;99.90;;;;;;5057634;28;20428;-58
2022/11/30 10:47:22;;;;;;;35.77;20.00;;;7.70;99.90;;;;;;5058142;28;20424;-56
2022/11/30 10:49:51;;;;;;;34.70;18.23;;;7.70;99.90;;;;;;5057689;28;20436;-60
2022/11/30 10:52:23;;;;;;;35.60;19.13;;;7.70;99.90;;;;;;5057234;28;20440;-60
2022/11/30 10:54:53;;;;;;;39.20;18.93;;;7.80;99.90;;;;;;5057582;28;20475;-55
2022/11/30 10:57:20;;;;;;;41.83;18.70;;;7.80;99.90;;;;;;5057346;28;20526;-56
2022/11/30 10:59:50;;;;;;;35.50;19.90;;;7.80;99.90;;;;;;5057143;28;20459;-58
2022/11/30 11:02:42;;;;;;;39.30;19.20;;;7.80;99.90;;;;;;5056654;28;20471;-59
2022/11/30 11:05:19;;;;;;;39.10;20.07;;;7.80;99.90;;;;;;5056518;28;20429;-56
2022/11/30 11:07:50;;;;;;;39.53;21.40;;;7.80;99.90;;;;;;5057358;28;20424;-58
2022/11/30 11:10:19;;;;;;;45.20;19.70;;;7.80;99.90;;;;;;5058336;28;20437;-58
2022/11/30 11:12:49;;;;;;;37.80;17.93;;;7.80;99.90;;;;;;5057587;28;20468;-57
2022/11/30 11:15:20;;;;;;;36.33;19.03;;;7.80;99.90;;;;;;5057255;28;20487;-58
2022/11/30 11:17:47;;;;;;;42.30;19.43;;;7.90;99.90;;;;;;5056776;28;20503;-55
2022/11/30 11:20:34;;;;;;;39.90;20.70;;;7.90;99.90;;;;;;5050245;28;20440;-52
2022/11/30 11:23:02;;;;;;;35.90;19.23;;;7.90;99.90;;;;;;5056329;28;20461;-58
2022/11/30 11:25:34;;;;;;;36.43;19.57;;;7.90;99.90;;;;;;5057235;28;20452;-57
2022/11/30 11:28:08;;;;;;;34.37;17.90;;;7.90;99.90;;;;;;5051382;28;20503;-57
2022/11/30 11:30:37;;;;;;;47.40;21.40;;;8.00;99.90;;;;;;5056922;28;20444;-57
2022/11/30 11:33:18;;;;;;;37.13;20.97;;;7.90;99.90;;;;;;5056284;28;20460;-54
2022/11/30 11:35:48;;;;;;;35.87;19.83;;;8.00;99.90;;;;;;5056858;28;20455;-54
2022/11/30 11:38:20;;;;;;;40.53;21.37;;;8.00;99.90;;;;;;5056999;28;20471;-54
2022/11/30 11:40:57;;;;;;;32.23;19.80;;;7.90;99.90;;;;;;5057456;28;20467;-55
2022/11/30 11:43:26;;;;;;;37.83;19.63;;;8.00;99.90;;;;;;5057290;28;20807;-58
2022/11/30 11:45:56;;;;;;;32.57;18.97;;;8.00;99.90;;;;;;5057297;28;20428;-55
2022/11/30 11:48:34;;;;;;;40.87;21.47;;;8.00;99.90;;;;;;5057060;28;20452;-56
2022/11/30 11:51:04;;;;;;;42.23;22.67;;;8.00;99.90;;;;;;5056843;28;20425;-57
2022/11/30 11:53:50;;;;;;;41.50;21.73;;;8.00;99.90;;;;;;5055968;28;20535;-54
2022/11/30 11:56:24;;;;;;;55.80;23.00;;;8.00;99.90;;;;;;5057374;28;20460;-58
2022/11/30 11:58:56;;;;;;;48.87;21.47;;;8.00;99.90;;;;;;5056457;28;20510;-58
2022/11/30 12:01:40;;;;;;;44.87;21.70;;;8.00;99.90;;;;;;5056922;28;20927;-58
2022/11/30 12:04:31;;;;;;;36.07;19.60;;;8.00;99.90;;;;;;5057021;28;20472;-56
2022/11/30 12:07:04;;;;;;;42.53;21.80;;;7.90;99.90;;;;;;5057011;28;20420;-54
2022/11/30 12:09:37;;;;;;;44.67;22.20;;;7.90;99.90;;;;;;5056740;28;20464;-59
2022/11/30 12:12:04;;;;;;;39.07;21.87;;;7.90;99.90;;;;;;5057163;28;20428;-63
2022/11/30 12:14:34;;;;;;;43.73;22.47;;;7.90;99.90;;;;;;5057312;28;20460;-56
2022/11/30 12:17:20;;;;;;;34.60;19.10;;;7.90;99.90;;;;;;5057080;28;20500;-58
2022/11/30 12:19:57;;;;;;;38.33;20.53;;;7.90;99.90;;;;;;5056693;28;20525;-55
2022/11/30 12:22:45;;;;;;;46.63;23.33;;;7.80;99.90;;;;;;5055991;28;20472;-58
2022/11/30 12:25:23;;;;;;;41.63;21.97;;;7.80;99.90;;;;;;5055698;28;20444;-58
2022/11/30 12:28:01;;;;;;;43.80;22.00;;;7.80;99.90;;;;;;5056306;28;20432;-58
2022/11/30 12:30:32;;;;;;;45.23;21.40;;;7.70;99.90;;;;;;5056568;28;20444;-59
2022/11/30 12:33:13;;;;;;;43.83;21.83;;;7.80;99.90;;;;;;5052558;28;20440;-58
2022/11/30 12:35:55;;;;;;;45.57;23.67;;;7.80;99.90;;;;;;5053138;28;20483;-57
2022/11/30 12:38:34;;;;;;;44.37;23.57;;;7.70;99.90;;;;;;5050957;28;20444;-58
2022/11/30 12:41:11;;;;;;;49.27;24.07;;;7.70;99.90;;;;;;5056209;28;20478;-58
2022/11/30 12:43:48;;;;;;;47.50;23.87;;;7.70;99.90;;;;;;5050896;28;20498;-56
2022/11/30 12:46:22;;;;;;;42.17;21.33;;;7.70;99.90;;;;;;5054459;28;20483;-54
2022/11/30 12:48:58;;;;;;;36.93;20.67;;;7.70;99.90;;;;;;5055264;28;20462;-57
2022/11/30 12:51:33;;;;;;;40.77;21.87;;;7.60;99.90;;;;;;5051581;28;20475;-59
2022/11/30 12:54:08;;;;;;;46.00;23.27;;;7.60;99.90;;;;;;5052641;28;20431;-57
2022/11/30 12:56:44;;;;;;;43.33;21.57;;;7.60;99.90;;;;;;5054121;28;20519;-55